createdAt,value
2022-12-06T00:01:21.449Z,100506
2022-12-06T00:06:21.433Z,100500
2022-12-06T00:11:21.505Z,100505
2022-12-06T00:16:21.838Z,100503
2022-12-06T00:21:21.763Z,100503
2022-12-06T00:26:21.622Z,100487
2022-12-06T00:31:21.505Z,100495
2022-12-06T00:41:21.717Z,100484
2022-12-06T00:46:21.578Z,100477
2022-12-06T00:56:21.486Z,100457
2022-12-06T01:01:21.803Z,100457
2022-12-06T01:06:21.457Z,100438
2022-12-06T01:11:21.642Z,100438
2022-12-06T01:16:21.570Z,100431
2022-12-06T01:21:21.834Z,100415
2022-12-06T01:26:21.755Z,100418
2022-12-06T01:31:21.640Z,100411
2022-12-06T01:36:21.722Z,100411
2022-12-06T01:41:21.506Z,100393
2022-12-06T01:46:21.750Z,100379
2022-12-06T01:51:21.475Z,100366
2022-12-06T01:56:21.661Z,100352
2022-12-06T02:01:21.845Z,100334
2022-12-06T02:06:21.474Z,100334
2022-12-06T02:11:21.770Z,100334
2022-12-06T02:16:21.594Z,100352
2022-12-06T02:21:21.557Z,100403
2022-12-06T02:26:21.578Z,100418
2022-12-06T02:31:21.543Z,100411
2022-12-06T02:36:21.520Z,100411
2022-12-06T02:41:21.496Z,100400
2022-12-06T02:46:21.552Z,100400
2022-12-06T02:51:21.597Z,100408
2022-12-06T02:56:21.498Z,100415
2022-12-06T03:01:21.683Z,100416
2022-12-06T03:06:21.745Z,100388
2022-12-06T03:11:21.589Z,100381
2022-12-06T03:16:21.639Z,100353
2022-12-06T03:21:21.571Z,100353
2022-12-06T03:26:21.832Z,100341
2022-12-06T03:31:21.865Z,100340
2022-12-06T03:36:21.649Z,100314
2022-12-06T03:41:21.533Z,100302
2022-12-06T03:46:21.747Z,100276
2022-12-06T03:51:21.783Z,100286
2022-12-06T03:56:21.564Z,100303
2022-12-06T04:01:21.835Z,100286
2022-12-06T04:06:21.511Z,100286
2022-12-06T04:11:21.700Z,100255
2022-12-06T04:16:21.910Z,100272
2022-12-06T04:21:21.660Z,100279
2022-12-06T04:26:21.519Z,100297
2022-12-06T04:31:22.254Z,100324
2022-12-06T04:36:21.677Z,100316
2022-12-06T04:41:21.511Z,100316
2022-12-06T04:46:21.835Z,100336
2022-12-06T04:51:21.525Z,100326
2022-12-06T04:56:21.540Z,100329
2022-12-06T05:01:21.917Z,100334
2022-12-06T05:06:21.689Z,100332
2022-12-06T05:11:21.537Z,100316
2022-12-06T05:16:21.721Z,100303
2022-12-06T05:21:21.563Z,100303
2022-12-06T05:26:21.646Z,100303
2022-12-06T05:31:21.643Z,100310
2022-12-06T05:36:21.575Z,100312
2022-12-06T05:41:21.539Z,100308
2022-12-06T05:46:21.626Z,100308
2022-12-06T05:51:21.547Z,100323
2022-12-06T05:56:21.571Z,100303
2022-12-06T06:01:21.679Z,100293
2022-12-06T06:06:21.851Z,100293
2022-12-06T06:11:21.642Z,100303
2022-12-06T06:16:22.123Z,100303
2022-12-06T06:21:21.560Z,100278
2022-12-06T06:26:21.799Z,100278
2022-12-06T06:31:21.975Z,100281
2022-12-06T06:36:21.752Z,100271
2022-12-06T06:41:21.587Z,100271
2022-12-06T06:46:21.737Z,100276
2022-12-06T06:51:21.606Z,100275
2022-12-06T06:56:21.676Z,100263
2022-12-06T07:01:21.741Z,100266
2022-12-06T07:06:21.664Z,100267
2022-12-06T07:11:21.787Z,100267
2022-12-06T07:16:21.754Z,100258
2022-12-06T07:21:21.780Z,100257
2022-12-06T07:26:21.580Z,100257
2022-12-06T07:31:21.875Z,100258
2022-12-06T07:36:21.863Z,100274
2022-12-06T07:41:21.714Z,100274
2022-12-06T07:46:21.683Z,100269
2022-12-06T07:51:21.679Z,100255
2022-12-06T07:56:21.823Z,100252
2022-12-06T08:01:21.983Z,100257
2022-12-06T08:06:21.869Z,100257
2022-12-06T08:11:21.935Z,100268
2022-12-06T08:16:21.686Z,100268
2022-12-06T08:21:21.903Z,100268
2022-12-06T08:26:21.635Z,100282
2022-12-06T08:31:21.960Z,100289
2022-12-06T08:36:21.636Z,100293
2022-12-06T08:41:21.639Z,100290
2022-12-06T08:46:21.732Z,100274
2022-12-06T08:51:21.665Z,100271
2022-12-06T08:56:21.652Z,100271
2022-12-06T09:01:21.723Z,100278
2022-12-06T09:06:21.897Z,100291
2022-12-06T09:11:21.736Z,100274
2022-12-06T09:16:21.980Z,100269
2022-12-06T09:21:21.748Z,100269
2022-12-06T09:26:21.876Z,100269
2022-12-06T09:31:21.739Z,100278
2022-12-06T09:36:21.672Z,100272
2022-12-06T09:41:21.954Z,100274
2022-12-06T09:46:21.817Z,100275
2022-12-06T09:51:21.676Z,100275
2022-12-06T09:56:21.776Z,100275
2022-12-06T10:01:21.720Z,100281
2022-12-06T10:06:21.649Z,100270
2022-12-06T10:11:21.695Z,100270
2022-12-06T10:16:21.744Z,100266
2022-12-06T10:21:21.837Z,100256
2022-12-06T10:26:22.002Z,100256
2022-12-06T10:31:21.859Z,100235
2022-12-06T10:36:21.675Z,100228
2022-12-06T10:41:21.775Z,100224
2022-12-06T10:46:21.809Z,100220
2022-12-06T10:51:21.775Z,100210
2022-12-06T10:56:21.913Z,100211
2022-12-06T11:01:21.819Z,100211
2022-12-06T11:06:21.727Z,100210
2022-12-06T11:11:22.016Z,100204
2022-12-06T11:16:21.982Z,100196
2022-12-06T11:21:21.712Z,100192
2022-12-06T11:26:21.693Z,100188
2022-12-06T11:31:21.883Z,100188
2022-12-06T11:36:21.687Z,100186
2022-12-06T11:41:21.878Z,100184
2022-12-06T11:46:21.809Z,100188
2022-12-06T12:01:21.868Z,100177
2022-12-06T12:06:21.983Z,100177
2022-12-06T12:11:21.843Z,100167
2022-12-06T12:21:22.064Z,100188
2022-12-06T12:26:21.937Z,100178
2022-12-06T12:31:21.784Z,100178
2022-12-06T12:36:21.744Z,100172
2022-12-06T12:41:22.055Z,100172
2022-12-06T12:46:21.888Z,100181
2022-12-06T12:51:21.767Z,100186
2022-12-06T12:56:21.882Z,100179
2022-12-06T13:01:22.049Z,100179
2022-12-06T13:06:21.794Z,100184
2022-12-06T13:11:21.865Z,100187
2022-12-06T13:16:21.844Z,100180
2022-12-06T13:21:21.802Z,100174
2022-12-06T13:26:21.734Z,100174
2022-12-06T13:31:21.984Z,100176
2022-12-06T13:36:22.069Z,100175
2022-12-06T13:41:21.880Z,100175
2022-12-06T13:46:21.828Z,100191
2022-12-06T13:51:21.854Z,100191
2022-12-06T13:56:21.986Z,100191
2022-12-06T14:01:21.902Z,100191
2022-12-06T14:06:21.762Z,100190
2022-12-06T14:11:22.092Z,100188
2022-12-06T14:16:21.985Z,100188
2022-12-06T14:21:22.082Z,100180
2022-12-06T14:26:21.865Z,100186
2022-12-06T14:31:22.193Z,100171
2022-12-06T14:36:22.175Z,100171
2022-12-06T14:41:21.956Z,100168
2022-12-06T14:46:21.900Z,100168
2022-12-06T14:51:23.663Z,100170
2022-12-06T14:56:21.812Z,100167
2022-12-06T15:01:21.842Z,100167
2022-12-06T15:06:21.804Z,100180
2022-12-06T15:11:21.816Z,100180
2022-12-06T15:16:21.964Z,100174
2022-12-06T15:21:21.801Z,100174
2022-12-06T15:26:22.034Z,100183
2022-12-06T15:31:21.850Z,100186
2022-12-06T15:36:22.009Z,100189
2022-12-06T15:41:21.834Z,100189
2022-12-06T15:46:21.981Z,100207
2022-12-06T15:51:22.108Z,100208
2022-12-06T15:56:21.796Z,100203
2022-12-06T16:01:22.177Z,100212
2022-12-06T16:06:21.938Z,100212
2022-12-06T16:11:22.058Z,100202
2022-12-06T16:16:21.868Z,100203
2022-12-06T16:21:22.012Z,100206
2022-12-06T16:26:22.158Z,100212
2022-12-06T16:31:22.012Z,100212
2022-12-06T16:36:21.874Z,100216
2022-12-06T16:41:22.043Z,100221
2022-12-06T16:46:22.166Z,100221
2022-12-06T16:51:22.075Z,100230
2022-12-06T16:56:22.040Z,100233
2022-12-06T17:01:22.033Z,100233
2022-12-06T17:06:21.920Z,100225
2022-12-06T17:11:22.170Z,100230
2022-12-06T17:16:22.005Z,100226
2022-12-06T17:21:22.605Z,100229
2022-12-06T17:26:22.238Z,100225
2022-12-06T17:31:22.040Z,100234
2022-12-06T17:36:25.254Z,100234
2022-12-06T17:41:22.131Z,100222
2022-12-06T17:46:22.731Z,100218
2022-12-06T17:51:22.062Z,100220
2022-12-06T18:01:22.034Z,100219
2022-12-06T18:06:22.911Z,100211
2022-12-06T18:11:22.071Z,100212
2022-12-06T18:16:22.357Z,100212
2022-12-06T18:21:22.174Z,100208
2022-12-06T18:26:23.275Z,100215
2022-12-06T18:31:21.984Z,100215
2022-12-06T18:36:22.211Z,100213
2022-12-06T18:41:22.280Z,100213
2022-12-06T18:46:22.174Z,100205
2022-12-06T18:51:22.429Z,100219
2022-12-06T18:56:22.267Z,100218
2022-12-06T19:01:22.479Z,100221
2022-12-06T19:06:23.251Z,100221
2022-12-06T19:11:22.458Z,100224
2022-12-06T19:16:22.285Z,100224
2022-12-06T19:21:22.408Z,100210
2022-12-06T19:26:22.243Z,100216
2022-12-06T19:31:22.578Z,100216
2022-12-06T19:36:23.318Z,100216
2022-12-06T19:41:22.299Z,100224
2022-12-06T19:46:22.417Z,100223
2022-12-06T19:51:22.270Z,100218
2022-12-06T19:56:22.017Z,100212
2022-12-06T20:01:22.297Z,100210
2022-12-06T20:06:22.478Z,100210
2022-12-06T20:11:26.635Z,100211
2022-12-06T20:16:22.440Z,100213
2022-12-06T20:21:23.401Z,100212
2022-12-06T20:26:22.107Z,100207
2022-12-06T20:31:22.616Z,100207
2022-12-06T20:36:22.134Z,100207
2022-12-06T20:41:25.255Z,100203
2022-12-06T20:46:22.326Z,100197
2022-12-06T20:51:21.903Z,100201
2022-12-06T20:56:23.947Z,100205
2022-12-06T21:01:22.149Z,100207
2022-12-06T21:06:22.498Z,100207
2022-12-06T21:11:23.831Z,100213
2022-12-06T21:16:22.556Z,100207
2022-12-06T21:21:22.051Z,100207
2022-12-06T21:26:21.916Z,100215
2022-12-06T21:31:22.049Z,100223
2022-12-06T21:36:22.157Z,100219
2022-12-06T21:41:21.971Z,100229
2022-12-06T21:46:22.073Z,100232
2022-12-06T21:51:22.291Z,100226
2022-12-06T21:56:22.078Z,100226
2022-12-06T22:01:22.316Z,100231
2022-12-06T22:06:21.965Z,100227
2022-12-06T22:11:22.215Z,100227
2022-12-06T22:16:22.149Z,100235
2022-12-06T22:21:21.974Z,100234
2022-12-06T22:26:21.945Z,100239
2022-12-06T22:31:22.085Z,100230
2022-12-06T22:36:21.990Z,100224
2022-12-06T22:41:21.957Z,100213
2022-12-06T22:46:22.384Z,100211
2022-12-06T22:51:22.033Z,100213
2022-12-06T22:56:22.229Z,100212
2022-12-06T23:01:22.316Z,100212
2022-12-06T23:06:22.175Z,100209
2022-12-06T23:11:21.998Z,100200
2022-12-06T23:16:22.203Z,100195
2022-12-06T23:21:22.010Z,100196
2022-12-06T23:26:22.134Z,100193
2022-12-06T23:31:22.402Z,100171
2022-12-06T23:36:22.067Z,100192
2022-12-06T23:41:22.225Z,100204
2022-12-06T23:46:22.606Z,100204
2022-12-06T23:51:22.207Z,100199
